Time;durP1;ratioP1;P1;durP2;ratioP2;P2;SDS_P1;SDS_P2;PMS_P1;PMS_P2;Temp;Humidity;BMP_temperature;BMP_pressure;BME280_temperature;BME280_humidity;BME280_pressure;Samples;Min_cycle;Max_cycle;Signal;HPM_P1;HPM_P2
2022/01/13 00:00:06;;;;;;;12.87;6.03;;;;;;;-12.37;100.00;100879.09;1673802;85;21011;-68
2022/01/13 00:02:35;;;;;;;14.00;5.60;;;;;;;-12.39;100.00;100873.02;1683431;85;21001;-67
2022/01/13 00:05:01;;;;;;;13.17;6.03;;;;;;;-12.39;100.00;100876.05;1688249;84;21030;-68
2022/01/13 00:07:28;;;;;;;11.53;5.03;;;;;;;-12.36;100.00;100875.59;1688167;85;21034;-67
2022/01/13 00:09:57;;;;;;;10.20;4.87;;;;;;;-12.33;100.00;100875.59;1688060;85;21082;-68
2022/01/13 00:12:28;;;;;;;8.50;4.30;;;;;;;-12.31;100.00;100876.45;1694078;84;21022;-68
2022/01/13 00:17:31;;;;;;;17.60;9.18;;;;;;;-12.34;100.00;100868.66;1690817;85;21111;-68
2022/01/13 00:20:08;;;;;;;8.67;4.57;;;;;;;-12.34;100.00;100875.59;1642032;86;21124;-68
2022/01/13 00:22:44;;;;;;;8.93;5.07;;;;;;;-12.35;100.00;100877.79;1664950;86;21048;-67
2022/01/13 00:25:03;;;;;;;12.18;4.78;;;;;;;-12.38;100.00;100876.05;1671530;85;21547;-68
2022/01/13 00:27:30;;;;;;;9.93;4.40;;;;;;;-12.44;100.00;100869.56;1691277;85;21589;-68
2022/01/13 00:30:00;;;;;;;11.33;4.90;;;;;;;-12.48;100.00;100870.43;1667794;86;21054;-67
2022/01/13 00:32:30;;;;;;;10.00;4.90;;;;;;;-12.52;100.00;100871.33;1668182;85;21037;-69
2022/01/13 00:34:55;;;;;;;11.17;5.50;;;;;;;-12.58;100.00;100867.45;1645628;86;21026;-67
2022/01/13 00:37:22;;;;;;;12.23;5.67;;;;;;;-12.64;100.00;100865.70;1691312;85;21097;-68
2022/01/13 00:39:49;;;;;;;12.17;5.97;;;;;;;-12.66;100.00;100863.55;1667828;85;21073;-68
2022/01/13 00:42:16;;;;;;;14.37;8.03;;;;;;;-12.72;100.00;100862.28;1691280;85;21090;-68
2022/01/13 00:44:45;;;;;;;20.87;10.97;;;;;;;-12.75;100.00;100862.28;1667833;86;21030;-67
2022/01/13 00:47:12;;;;;;;15.87;9.77;;;;;;;-12.77;100.00;100864.89;1667765;86;21061;-67
2022/01/13 00:49:39;;;;;;;11.87;5.63;;;;;;;-12.79;100.00;100870.54;1692566;83;21078;-68
2022/01/13 00:52:06;;;;;;;12.17;5.50;;;;;;;-12.82;100.00;100863.61;1693504;83;21562;-67
2022/01/13 00:54:34;;;;;;;15.90;8.30;;;;;;;-12.86;100.00;100870.13;1693397;83;21073;-67
2022/01/13 00:57:01;;;;;;;13.80;5.73;;;;;;;-12.87;100.00;100861.87;1693394;83;21629;-68
2022/01/13 00:59:28;;;;;;;12.47;6.53;;;;;;;-12.88;100.00;100865.36;1668805;83;21037;-68
2022/01/13 01:01:55;;;;;;;14.97;7.50;;;;;;;-12.90;100.00;100860.15;1693507;83;21065;-68
2022/01/13 01:04:23;;;;;;;15.20;6.67;;;;;;;-12.91;100.00;100858.84;1693390;83;21022;-68
2022/01/13 01:06:51;;;;;;;13.93;5.90;;;;;;;-12.92;100.00;100864.50;1689452;84;21595;-67
2022/01/13 01:09:29;;;;;;;8.93;5.00;;;;;;;-12.98;100.00;100855.38;1700594;84;21074;-68
2022/01/13 01:11:48;;;;;;;12.67;5.20;;;;;;;-13.03;100.00;100859.31;1698109;84;21067;-68
2022/01/13 01:14:18;;;;;;;15.33;6.87;;;;;;;-13.06;100.00;100859.76;1691061;84;21031;-68
2022/01/13 01:16:45;;;;;;;10.20;5.60;;;;;;;-13.10;100.00;100865.41;1711678;84;21078;-67
2022/01/13 01:19:14;;;;;;;10.87;5.03;;;;;;;-13.16;100.00;100862.79;1725763;83;21508;-68
2022/01/13 01:24:30;;;;;;;11.50;4.90;;;;;;;-13.29;100.00;100854.58;1711058;84;21031;-68
2022/01/13 01:29:37;;;;;;;12.27;5.07;;;;;;;-13.36;100.00;100853.74;1688064;85;21034;-68
2022/01/13 01:31:58;;;;;;;11.23;4.80;;;;;;;-13.38;100.00;100847.23;1684982;85;21514;-68
2022/01/13 01:39:36;;;;;;;15.43;8.73;;;;;;;-13.46;100.00;100845.05;1628566;87;21021;-68
2022/01/13 01:42:04;;;;;;;17.70;9.03;;;;;;;-13.53;100.00;100849.83;1628653;87;21064;-69
2022/01/13 01:44:37;;;;;;;15.33;6.77;;;;;;;-13.55;100.00;100848.97;1650287;87;21537;-68
2022/01/13 01:47:03;;;;;;;13.43;6.37;;;;;;;-13.57;100.00;100850.70;1647082;86;21191;-69
2022/01/13 01:49:37;;;;;;;13.63;6.23;;;;;;;-13.60;100.00;100848.95;1652879;87;21580;-68
2022/01/13 01:52:00;;;;;;;13.30;6.17;;;;;;;-13.64;100.00;100855.03;1650200;87;21324;-68
2022/01/13 01:54:28;;;;;;;10.77;5.53;;;;;;;-13.67;100.00;100850.26;1631348;87;21079;-69
2022/01/13 01:56:55;;;;;;;11.07;4.93;;;;;;;-13.70;100.00;100850.25;1653206;87;21527;-68
2022/01/13 01:59:29;;;;;;;13.30;5.07;;;;;;;-13.74;100.00;100851.13;1652040;87;21099;-68
2022/01/13 02:01:56;;;;;;;9.30;5.33;;;;;;;-13.79;100.00;100841.59;1653407;87;21060;-68
2022/01/13 02:06:54;;;;;;;13.30;5.63;;;;;;;-13.84;100.00;100843.77;1573401;90;21152;-69
2022/01/13 02:09:22;;;;;;;11.93;5.10;;;;;;;-13.87;100.00;100843.31;1556425;92;21541;-69
2022/01/13 02:11:53;;;;;;;13.07;5.17;;;;;;;-13.88;100.00;100840.70;1517020;91;21085;-68
2022/01/13 02:17:03;;;;;;;9.47;4.63;;;;;;;-13.93;100.00;100853.72;1539122;92;21110;-68
2022/01/13 02:19:29;;;;;;;13.63;4.70;;;;;;;-13.97;100.00;100858.04;1498352;95;21159;-69
2022/01/13 02:21:56;;;;;;;6.73;4.17;;;;;;;-13.99;100.00;100864.08;1516676;95;21103;-68
2022/01/13 02:24:23;;;;;;;10.73;4.80;;;;;;;-14.05;100.00;100856.28;1519631;94;21614;-67
2022/01/13 02:26:51;;;;;;;9.60;4.80;;;;;;;-14.08;100.00;100857.13;1560371;92;21613;-66
2022/01/13 02:29:18;;;;;;;10.57;5.20;;;;;;;-14.12;100.00;100854.54;1560673;92;21121;-68
2022/01/13 02:31:45;;;;;;;11.20;5.07;;;;;;;-14.14;100.00;100855.83;1560289;91;21838;-68
2022/01/13 02:34:12;;;;;;;13.50;5.70;;;;;;;-14.20;100.00;100850.59;1560499;92;21105;-68
2022/01/13 02:36:42;;;;;;;14.27;7.20;;;;;;;-14.20;100.00;100855.39;1560277;92;21116;-68
2022/01/13 02:39:10;;;;;;;10.83;5.13;;;;;;;-14.25;100.00;100844.11;1560514;91;21085;-68
2022/01/13 02:41:37;;;;;;;13.50;5.13;;;;;;;-14.27;100.00;100854.91;1512872;94;21043;-68
2022/01/13 02:44:14;;;;;;;11.73;4.50;;;;;;;-14.33;100.00;100849.27;1558557;92;21105;-69
2022/01/13 02:49:04;;;;;;;8.50;4.00;;;;;;;-14.42;100.00;100840.59;1562142;91;21103;-67
2022/01/13 02:51:32;;;;;;;8.03;4.33;;;;;;;-14.46;100.00;100857.89;1564226;91;21056;-69
2022/01/13 02:53:59;;;;;;;9.47;4.40;;;;;;;-14.48;100.00;100862.22;1564012;92;21112;-68
2022/01/13 02:56:27;;;;;;;9.53;4.20;;;;;;;-14.50;100.00;100861.76;1542416;92;21804;-68
2022/01/13 02:58:54;;;;;;;7.77;4.30;;;;;;;-14.59;100.00;100873.86;1542776;92;21088;-66
2022/01/13 03:01:21;;;;;;;10.10;4.30;;;;;;;-14.62;100.00;100871.27;1541706;92;21025;-67
2022/01/13 03:03:48;;;;;;;11.73;4.97;;;;;;;-14.64;100.00;100873.41;1581423;89;21045;-67
2022/01/13 03:06:20;;;;;;;11.83;5.40;;;;;;;-14.68;100.00;100884.21;1635506;83;21065;-68
2022/01/13 03:08:47;;;;;;;12.43;4.87;;;;;;;-14.70;100.00;100886.38;1707833;82;21523;-68
2022/01/13 03:11:15;;;;;;;10.00;4.40;;;;;;;-14.70;100.00;100886.38;1725856;82;21456;-69
2022/01/13 03:13:42;;;;;;;16.03;6.07;;;;;;;-14.74;100.00;100893.28;1732160;83;21654;-68
2022/01/13 03:16:12;;;;;;;13.53;5.40;;;;;;;-14.77;100.00;100888.92;1726087;83;21022;-69
2022/01/13 03:18:39;;;;;;;10.77;4.43;;;;;;;-14.77;100.00;100888.92;1695758;84;22412;-69
2022/01/13 03:21:07;;;;;;;10.50;4.30;;;;;;;-14.77;100.00;100891.96;1672600;85;21791;-68
2022/01/13 03:23:35;;;;;;;10.53;4.50;;;;;;;-14.79;100.00;100889.34;1672197;85;21779;-69
2022/01/13 03:26:02;;;;;;;11.53;4.30;;;;;;;-14.81;100.00;100899.30;1672568;85;21736;-68
2022/01/13 03:28:37;;;;;;;14.47;6.73;;;;;;;-14.81;100.00;100899.30;1695836;85;21052;-67
2022/01/13 03:31:02;;;;;;;11.90;4.63;;;;;;;-14.84;100.00;100903.17;1692422;85;21760;-69
2022/01/13 03:33:29;;;;;;;13.00;6.17;;;;;;;-14.86;100.00;100907.05;1695786;85;22272;-68
2022/01/13 03:35:57;;;;;;;15.50;7.50;;;;;;;-14.89;100.00;100895.34;1672748;85;21059;-69
2022/01/13 03:38:24;;;;;;;15.23;7.53;;;;;;;-14.88;100.00;100902.72;1672446;85;21697;-69
2022/01/13 03:40:51;;;;;;;16.73;6.87;;;;;;;-14.91;100.00;100902.25;1672968;85;21768;-69
2022/01/13 03:43:18;;;;;;;26.17;14.30;;;;;;;-14.97;100.00;100909.58;1672629;85;22254;-67
2022/01/13 03:45:45;;;;;;;28.73;16.10;;;;;;;-15.00;100.00;100912.14;1695563;85;21539;-67
2022/01/13 03:50:43;;;;;;;38.87;20.83;;;;;;;-15.04;100.00;100924.67;1574649;91;21833;-69
2022/01/13 03:53:33;;;;;;;13.17;7.40;;;;;;;-15.07;100.00;100921.19;1574788;91;22318;-68
2022/01/13 03:56:56;;;;;;;10.73;5.37;;;;;;;-15.08;100.00;100919.03;1571952;91;22333;-69
2022/01/13 03:59:38;;;;;;;11.48;4.65;;;;;;;-15.11;100.00;100909.91;1554633;91;21800;-68
2022/01/13 04:02:11;;;;;;;8.50;4.58;;;;;;;-15.14;100.00;100908.59;1554587;92;21065;-69
2022/01/13 04:04:45;;;;;;;9.90;4.93;;;;;;;-15.18;100.00;100915.48;1517406;95;21591;-69
2022/01/13 04:07:19;;;;;;;10.23;4.40;;;;;;;-15.16;100.00;100909.02;1460687;98;22003;-69
2022/01/13 04:09:52;;;;;;;8.80;4.20;;;;;;;-15.17;100.00;100912.05;1461152;98;21893;-69
2022/01/13 04:12:20;;;;;;;;;;;;;;;-15.17;100.00;100912.05;1482091;97;21931;-69
2022/01/13 04:14:49;;;;;;;8.03;3.90;;;;;;;-15.18;100.00;100911.59;1442197;99;20142;-69
2022/01/13 04:17:18;;;;;;;8.93;4.07;;;;;;;-15.19;100.00;100908.98;1388540;101;21893;-68
2022/01/13 04:19:45;;;;;;;7.73;4.17;;;;;;;-15.21;100.00;100916.74;1421050;101;22413;-68
2022/01/13 04:22:14;;;;;;;8.47;3.97;;;;;;;-15.23;100.00;100916.31;1419000;101;21942;-68
2022/01/13 04:24:49;;;;;;;8.00;3.90;;;;;;;-15.25;100.00;100915.44;1457038;98;21943;-67
2022/01/13 04:27:27;;;;;;;8.53;3.93;;;;;;;-15.24;100.00;100913.26;1457074;98;21896;-69
2022/01/13 04:32:29;;;;;;;8.73;4.10;;;;;;;-15.26;100.00;100923.66;1423495;100;21939;-68
2022/01/13 04:34:55;;;;;;;9.73;4.07;;;;;;;-15.30;100.00;100919.27;1423502;100;21874;-68
2022/01/13 04:37:22;;;;;;;7.97;4.00;;;;;;;-15.32;100.00;100921.85;1440364;100;21902;-68
2022/01/13 04:39:50;;;;;;;10.93;4.83;;;;;;;-15.33;100.00;100920.12;1414661;99;21943;-68
2022/01/13 04:42:17;;;;;;;8.57;4.13;;;;;;;-15.34;100.00;100914.48;1409730;101;21913;-68
2022/01/13 04:44:44;;;;;;;6.53;4.03;;;;;;;-15.33;100.00;100916.23;1426575;101;21904;-68
2022/01/13 04:47:12;;;;;;;7.73;3.53;;;;;;;-15.34;100.00;100922.27;1426618;101;21934;-69
2022/01/13 04:49:40;;;;;;;10.90;4.40;;;;;;;-15.36;100.00;100923.12;1433723;100;21992;-68
2022/01/13 04:52:06;;;;;;;10.93;4.30;;;;;;;-15.37;100.00;100933.05;1437817;100;21901;-68
2022/01/13 04:54:33;;;;;;;12.23;4.67;;;;;;;-15.40;100.00;100927.42;1514518;93;22505;-69
2022/01/13 04:57:15;;;;;;;12.17;4.70;;;;;;;-15.39;100.00;100920.50;1545161;93;21792;-70
2022/01/13 04:59:36;;;;;;;8.40;3.90;;;;;;;-15.37;100.00;100918.34;1524452;93;21812;-68
2022/01/13 05:02:03;;;;;;;12.93;4.57;;;;;;;-15.37;100.00;100914.45;1524552;93;21790;-67
2022/01/13 05:04:31;;;;;;;8.10;4.13;;;;;;;-15.36;100.00;100921.39;1565674;91;21883;-67
2022/01/13 05:06:58;;;;;;;9.60;4.93;;;;;;;-15.38;100.00;100924.84;1614898;88;21715;-69
2022/01/13 05:09:25;;;;;;;11.23;4.70;;;;;;;-15.39;100.00;100929.58;1626042;85;21799;-67
2022/01/13 05:11:52;;;;;;;14.30;6.53;;;;;;;-15.39;100.00;100926.98;1683008;85;21768;-67
2022/01/13 05:14:19;;;;;;;19.80;7.30;;;;;;;-15.37;100.00;100940.83;1654995;85;22209;-67
2022/01/13 05:19:28;;;;;;;11.80;4.87;;;;;;;-15.38;100.00;100936.08;1643372;85;21823;-67
2022/01/13 05:24:27;;;;;;;10.57;4.63;;;;;;;-15.34;100.00;100936.97;1643105;85;21778;-67
2022/01/13 05:26:54;;;;;;;16.93;4.67;;;;;;;-15.36;100.00;100930.91;1654686;85;21763;-68
2022/01/13 05:29:21;;;;;;;13.07;5.03;;;;;;;-15.33;100.00;100942.18;1683239;85;21776;-68
2022/01/13 05:31:48;;;;;;;12.97;5.53;;;;;;;-15.32;100.00;100933.96;1683203;85;21752;-70
2022/01/13 05:34:16;;;;;;;10.97;4.50;;;;;;;-15.32;100.00;100930.93;1654699;85;21764;-69
2022/01/13 05:36:44;;;;;;;11.47;4.40;;;;;;;-15.30;100.00;100928.35;1682864;85;21824;-70
2022/01/13 05:39:11;;;;;;;27.13;8.77;;;;;;;-15.28;100.00;100935.72;1642089;85;21740;-70
2022/01/13 05:41:38;;;;;;;14.53;5.33;;;;;;;-15.25;100.00;100932.30;1642492;85;21737;-70
2022/01/13 05:44:05;;;;;;;10.93;4.70;;;;;;;-15.19;100.00;100925.84;1682257;85;21831;-69
2022/01/13 05:46:32;;;;;;;10.77;4.93;;;;;;;-15.13;100.00;100924.61;1642778;85;21775;-66
2022/01/13 05:48:59;;;;;;;8.53;4.03;;;;;;;-15.06;100.00;100921.20;1681149;85;21775;-68
2022/01/13 05:51:27;;;;;;;10.80;4.90;;;;;;;-14.99;100.00;100927.31;1675708;86;21801;-68
2022/01/13 05:53:54;;;;;;;15.93;6.03;;;;;;;-14.94;100.00;100921.70;1675260;86;22323;-69
2022/01/13 05:56:21;;;;;;;10.10;4.87;;;;;;;-14.86;100.00;100923.06;1675655;86;21732;-68
2022/01/13 05:58:48;;;;;;;14.30;5.17;;;;;;;-14.78;100.00;100926.55;1645019;86;21806;-70
2022/01/13 06:01:16;;;;;;;13.67;5.00;;;;;;;-14.69;100.00;100917.55;1676132;86;22236;-68
2022/01/13 06:03:43;;;;;;;16.27;7.07;;;;;;;-14.63;100.00;100916.27;1675911;86;21756;-67
2022/01/13 06:06:10;;;;;;;10.67;4.83;;;;;;;-14.58;100.00;100918.47;1675826;86;21760;-68
2022/01/13 06:08:38;;;;;;;11.47;5.10;;;;;;;-14.56;100.00;100919.30;1703470;83;21779;-68
2022/01/13 06:11:05;;;;;;;11.67;4.90;;;;;;;-14.50;100.00;100919.76;1703711;84;21743;-68
2022/01/13 06:13:32;;;;;;;12.03;5.00;;;;;;;-14.36;100.00;100926.33;1704431;83;22170;-67
2022/01/13 06:15:59;;;;;;;29.90;13.13;;;;;;;-14.24;100.00;100924.22;1677139;85;22285;-68
2022/01/13 06:18:28;;;;;;;15.83;7.50;;;;;;;-14.17;100.00;100917.74;1657502;86;21059;-68
2022/01/13 06:20:56;;;;;;;15.90;6.73;;;;;;;-14.12;100.00;100928.61;1677064;84;21055;-67
2022/01/13 06:23:23;;;;;;;23.83;9.43;;;;;;;-14.08;100.00;100917.35;1676962;85;21726;-70
2022/01/13 06:25:50;;;;;;;18.03;7.17;;;;;;;-14.09;100.00;100920.80;1676725;86;21054;-67
2022/01/13 06:28:17;;;;;;;18.33;7.70;;;;;;;-14.09;100.00;100919.09;1677035;85;21942;-68
2022/01/13 06:30:44;;;;;;;15.20;6.30;;;;;;;-14.09;100.00;100922.99;1677160;85;21743;-68
2022/01/13 06:33:11;;;;;;;17.27;7.63;;;;;;;-14.05;100.00;100922.56;1703623;83;21692;-68
2022/01/13 06:35:38;;;;;;;17.03;7.80;;;;;;;-13.97;100.00;100913.94;1657740;85;21037;-67
2022/01/13 06:38:05;;;;;;;13.67;6.47;;;;;;;-13.97;100.00;100913.94;1677113;85;21070;-68
2022/01/13 06:40:32;;;;;;;19.90;8.30;;;;;;;-13.93;100.00;100903.52;1657439;86;21030;-68
2022/01/13 06:43:00;;;;;;;22.27;9.23;;;;;;;-13.89;100.00;100902.69;1676744;85;21178;-68
2022/01/13 06:45:27;;;;;;;16.73;7.30;;;;;;;-13.77;100.00;100905.31;1676192;86;21101;-68
2022/01/13 06:47:54;;;;;;;23.87;8.90;;;;;;;-13.66;100.00;100901.42;1676988;85;21042;-67
2022/01/13 06:50:21;;;;;;;44.20;20.37;;;;;;;-13.62;100.00;100907.91;1659201;85;21093;-68
2022/01/13 06:52:49;;;;;;;36.77;16.27;;;;;;;-13.59;100.00;100919.63;1686711;85;21107;-68
2022/01/13 06:55:16;;;;;;;26.20;10.77;;;;;;;-13.52;100.00;100909.25;1686660;85;21091;-68
2022/01/13 06:57:43;;;;;;;41.20;23.20;;;;;;;-13.48;100.00;100907.08;1686514;84;21073;-69
2022/01/13 07:00:11;;;;;;;30.80;9.07;;;;;;;-13.51;100.00;100914.87;1686666;85;21095;-67
2022/01/13 07:02:38;;;;;;;40.60;14.60;;;;;;;-13.49;100.00;100907.93;1643639;86;21023;-69
2022/01/13 07:05:11;;;;;;;17.47;9.43;;;;;;;-13.51;100.00;100912.27;1632598;86;21003;-69
2022/01/13 07:07:42;;;;;;;20.93;9.93;;;;;;;-13.57;100.00;100911.39;1671562;85;20986;-71
2022/01/13 07:10:12;;;;;;;27.90;12.77;;;;;;;-13.61;100.00;100917.91;1681710;85;21065;-69
2022/01/13 07:12:40;;;;;;;64.33;31.30;;;;;;;-13.61;100.00;100931.78;1685666;85;21121;-63
2022/01/13 07:15:08;;;;;;;25.90;12.67;;;;;;;-13.58;100.00;100924.39;1686933;85;21478;-69
2022/01/13 07:17:36;;;;;;;26.33;9.27;;;;;;;-13.57;100.00;100918.34;1686729;85;21118;-68
2022/01/13 07:20:05;;;;;;;23.27;8.37;;;;;;;-13.55;100.00;100923.11;1686924;84;21459;-68
2022/01/13 07:22:32;;;;;;;16.40;7.80;;;;;;;-13.54;100.00;100931.36;1685700;84;21056;-67
2022/01/13 07:25:01;;;;;;;24.17;7.70;;;;;;;-13.48;100.00;100911.84;1681468;84;21013;-68
2022/01/13 07:27:28;;;;;;;17.20;8.37;;;;;;;-13.39;100.00;100908.37;1657736;85;21116;-68
2022/01/13 07:29:55;;;;;;;21.47;10.23;;;;;;;-13.28;100.00;100900.09;1685688;85;21064;-68
2022/01/13 07:32:22;;;;;;;16.07;7.27;;;;;;;-13.15;100.00;100903.58;1685800;85;21053;-68
2022/01/13 07:34:49;;;;;;;20.40;8.13;;;;;;;-13.04;100.00;100897.92;1685027;85;21104;-69
2022/01/13 07:37:16;;;;;;;18.60;7.70;;;;;;;-12.93;100.00;100900.95;1680728;85;21084;-68
2022/01/13 07:39:44;;;;;;;30.77;13.03;;;;;;;-12.84;100.00;100893.98;1686812;85;21060;-68
2022/01/13 07:42:13;;;;;;;20.87;8.93;;;;;;;-12.78;100.00;100904.84;1686607;85;21037;-68
2022/01/13 07:44:40;;;;;;;36.13;17.10;;;;;;;-12.72;100.00;100892.23;1682391;84;21057;-70
2022/01/13 07:47:07;;;;;;;33.80;15.97;;;;;;;-12.65;100.00;100884.83;1682003;85;21121;-71
2022/01/13 07:49:38;;;;;;;51.00;24.37;;;;;;;-12.59;100.00;100895.22;1683938;84;21599;-70
2022/01/13 07:52:06;;;;;;;44.80;24.63;;;;;;;-12.49;100.00;100897.38;1677966;84;21042;-71
2022/01/13 07:54:33;;;;;;;54.37;23.63;;;;;;;-12.37;100.00;100896.48;1678266;85;21530;-71
2022/01/13 07:57:00;;;;;;;35.47;17.23;;;;;;;-12.25;100.00;100880.34;1672811;85;21080;-71
2022/01/13 07:59:29;;;;;;;43.90;22.13;;;;;;;-12.24;100.00;100883.36;1673408;85;21542;-71
2022/01/13 08:01:58;;;;;;;41.30;18.00;;;;;;;-12.22;100.00;100879.00;1678036;85;21558;-70
2022/01/13 08:04:25;;;;;;;39.77;18.37;;;;;;;-12.14;100.00;100867.25;1621605;87;21067;-71
2022/01/13 08:06:53;;;;;;;40.07;18.90;;;;;;;-11.95;100.00;100858.02;1630719;86;21058;-69
2022/01/13 08:09:22;;;;;;;34.67;14.50;;;;;;;-11.85;100.00;100860.97;1607426;88;21577;-69
2022/01/13 08:11:50;;;;;;;31.30;14.60;;;;;;;-11.81;100.00;100867.88;1621726;88;21059;-69
2022/01/13 08:14:17;;;;;;;35.60;17.37;;;;;;;-11.73;100.00;100872.62;1586846;90;21125;-68
2022/01/13 08:16:45;;;;;;;37.40;13.03;;;;;;;-11.54;100.00;100861.63;1575194;88;21111;-70
2022/01/13 08:21:57;;;;;;;27.63;12.63;;;;;;;-11.47;100.00;100854.17;1613980;88;21091;-69
2022/01/13 08:24:25;;;;;;;48.27;23.63;;;;;;;-11.42;100.00;100842.38;1616308;89;21532;-72
2022/01/13 08:26:52;;;;;;;34.07;14.20;;;;;;;-11.40;100.00;100840.64;1594432;89;21086;-69
2022/01/13 08:29:19;;;;;;;36.73;13.47;;;;;;;-11.37;100.00;100844.50;1614971;87;21007;-69
2022/01/13 08:31:46;;;;;;;57.47;21.33;;;;;;;-11.31;100.00;100842.31;1621362;87;21540;-68
2022/01/13 08:34:15;;;;;;;35.57;16.73;;;;;;;-11.27;100.00;100837.02;1621314;87;21036;-70
2022/01/13 08:36:43;;;;;;;46.97;24.00;;;;;;;-11.25;100.00;100826.57;1604788;87;21087;-69
2022/01/13 08:39:10;;;;;;;42.70;19.03;;;;;;;-11.17;100.00;100839.55;1622489;87;21049;-70
2022/01/13 08:41:37;;;;;;;56.27;24.40;;;;;;;-11.04;100.00;100839.01;1635027;87;20998;-71
2022/01/13 08:44:04;;;;;;;48.67;21.70;;;;;;;-11.03;100.00;100842.03;1630823;87;21062;-70
2022/01/13 08:46:32;;;;;;;40.77;20.60;;;;;;;-11.05;100.00;100844.66;1612143;87;21600;-69
2022/01/13 08:49:05;;;;;;;44.97;20.57;;;;;;;-11.01;100.00;100837.65;1607459;87;21095;-69
2022/01/13 08:51:32;;;;;;;41.77;20.77;;;;;;;-10.96;100.00;100841.97;1636821;87;21077;-69
2022/01/13 08:54:05;;;;;;;52.50;26.70;;;;;;;-10.90;100.00;100847.12;1621509;87;21075;-70
2022/01/13 08:56:33;;;;;;;70.93;31.17;;;;;;;-10.85;100.00;100849.70;1622847;87;21153;-70
2022/01/13 08:59:00;;;;;;;60.43;29.13;;;;;;;-10.77;100.00;100853.07;1626174;87;21071;-69
2022/01/13 09:01:30;;;;;;;57.40;25.47;;;;;;;-10.62;100.00;100835.48;1642531;86;21601;-70
2022/01/13 09:03:59;;;;;;;45.90;20.80;;;;;;;-10.52;100.00;100831.47;1652498;86;21052;-70
2022/01/13 09:06:26;;;;;;;49.40;21.37;;;;;;;-10.59;100.00;100835.45;1626773;86;21065;-69
2022/01/13 09:08:53;;;;;;;48.07;22.60;;;;;;;-10.63;100.00;100841.61;1649429;86;21053;-69
2022/01/13 09:11:20;;;;;;;49.33;24.70;;;;;;;-10.61;100.00;100845.07;1659810;86;21063;-69
2022/01/13 09:13:47;;;;;;;57.60;24.50;;;;;;;-10.59;100.00;100838.92;1660010;85;21465;-70
2022/01/13 09:16:16;;;;;;;39.27;18.20;;;;;;;-10.58;100.00;100844.59;1657023;86;20986;-69
2022/01/13 09:21:25;;;;;;;40.03;19.80;;;;;;;-10.56;100.00;100821.05;1648355;86;21539;-70
2022/01/13 09:23:51;;;;;;;41.00;18.67;;;;;;;-10.46;100.00;100830.94;1651828;86;21056;-68
2022/01/13 09:26:18;;;;;;;37.87;15.83;;;;;;;-10.29;100.00;100817.17;1649462;86;21123;-70
2022/01/13 09:28:45;;;;;;;28.37;12.97;;;;;;;-10.08;100.00;100812.55;1676279;84;21098;-69
2022/01/13 09:31:12;;;;;;;25.57;11.83;;;;;;;-10.02;100.00;100806.79;1664432;86;21056;-68
2022/01/13 09:33:40;;;;;;;27.27;9.90;;;;;;;-10.04;100.00;100807.23;1667805;86;21720;-68
2022/01/13 09:36:07;;;;;;;24.20;9.60;;;;;;;-10.08;100.00;100785.94;1642766;86;21064;-68
2022/01/13 09:38:34;;;;;;;48.07;16.57;;;;;;;-10.06;100.00;100799.85;1660718;86;21041;-69
2022/01/13 09:41:01;;;;;;;32.27;14.37;;;;;;;-10.01;100.00;100791.95;1650165;86;21025;-69
2022/01/13 09:43:29;;;;;;;36.50;15.30;;;;;;;-9.89;100.00;100786.53;1628303;85;21200;-69
2022/01/13 09:45:58;;;;;;;37.57;16.20;;;;;;;-9.83;100.00;100789.03;1624262;85;21760;-68
2022/01/13 09:48:27;;;;;;;22.90;8.83;;;;;;;-9.74;100.00;100783.69;1648147;85;22088;-69
2022/01/13 09:50:54;;;;;;;35.47;15.33;;;;;;;-9.61;100.00;100781.72;1647743;85;21065;-71
2022/01/13 09:53:21;;;;;;;28.07;13.60;;;;;;;-9.48;100.00;100777.59;1661701;85;21038;-68
2022/01/13 09:55:48;;;;;;;31.37;12.97;;;;;;;-9.32;100.00;100769.02;1650248;86;21098;-71
2022/01/13 09:58:15;;;;;;;29.73;17.80;;;;;;;-9.20;100.00;100776.20;1641170;86;22516;-69
2022/01/13 10:00:43;;;;;;;49.00;20.83;;;;;;;-9.09;100.00;100772.52;1605104;87;21090;-71
2022/01/13 10:03:17;;;;;;;35.27;20.17;;;;;;;-9.05;100.00;100776.34;1596017;89;21050;-68
2022/01/13 10:05:52;;;;;;;13.53;6.80;;;;;;;-9.08;100.00;100767.26;1550227;92;21111;-69
2022/01/13 10:08:26;;;;;;;18.67;8.17;;;;;;;-9.05;100.00;100778.11;1549314;91;21095;-69
2022/01/13 10:10:53;;;;;;;15.73;6.20;;;;;;;-8.98;100.00;100774.48;1554868;91;21045;-69
2022/01/13 10:18:48;;;;;;;65.03;23.47;;;;;;;-8.94;100.00;100768.31;1483500;96;21128;-68
2022/01/13 10:21:17;;;;;;;30.27;11.67;;;;;;;-8.92;100.00;100758.66;1483743;95;21149;-70
2022/01/13 10:24:03;;;;;;;30.07;11.37;;;;;;;-8.81;100.00;100751.88;1483739;95;21706;-71
2022/01/13 10:26:30;;;;;;;25.53;10.07;;;;;;;-8.87;100.00;100771.23;1420412;99;21121;-70
2022/01/13 10:28:58;;;;;;;26.10;10.30;;;;;;;-8.88;100.00;100768.63;1432755;100;21153;-69
2022/01/13 10:31:51;;;;;;;18.67;7.73;;;;;;;-8.75;100.00;100761.38;1433553;99;21208;-68
2022/01/13 10:34:21;;;;;;;22.95;10.05;;;;;;;-8.61;100.00;100757.56;1439774;99;21140;-70
2022/01/13 10:37:17;;;;;;;41.13;14.40;;;;;;;-8.60;100.00;100754.05;1471982;96;21186;-72
2022/01/13 10:39:54;;;;;;;25.80;8.73;;;;;;;-8.52;100.00;100751.72;1384729;102;21225;-69
2022/01/13 10:45:26;;;;;;;21.40;8.03;;;;;;;-8.40;100.00;100747.48;1381108;102;21194;-69
2022/01/13 10:48:15;;;;;;;19.17;8.83;;;;;;;-8.40;100.00;100747.48;1384430;102;21117;-71
2022/01/13 10:50:53;;;;;;;21.20;9.80;;;;;;;-8.41;100.00;100745.31;1373998;103;21124;-70
2022/01/13 10:53:27;;;;;;;21.00;9.17;;;;;;;-8.38;100.00;100738.27;1393837;103;21135;-68
2022/01/13 10:56:00;;;;;;;21.00;10.20;;;;;;;-8.36;100.00;100728.15;1402629;102;21195;-70
2022/01/13 10:58:32;;;;;;;32.30;17.10;;;;;;;-8.27;100.00;100720.52;1392946;103;21195;-70
2022/01/13 11:01:01;;;;;;;22.22;10.68;;;;;;;-8.32;100.00;100710.15;1328135;108;21683;-69
2022/01/13 11:03:29;;;;;;;24.30;10.27;;;;;;;-8.22;100.00;100693.73;1345366;106;21619;-68
2022/01/13 11:06:00;;;;;;;21.40;9.33;;;;;;;-8.13;100.00;100698.75;1363462;104;21654;-70
2022/01/13 11:08:41;;;;;;;22.27;10.87;;;;;;;-8.04;100.00;100694.62;1346642;106;21267;-69
2022/01/13 11:11:30;;;;;;;22.37;9.10;;;;;;;-7.90;100.00;100690.31;1334406;107;21670;-69
2022/01/13 11:14:04;;;;;;;22.77;9.90;;;;;;;-7.90;100.00;100693.40;1344816;105;21148;-70
2022/01/13 11:16:29;;;;;;;27.57;10.77;;;;;;;-7.93;100.00;100694.78;1409197;99;21123;-69
2022/01/13 11:18:58;;;;;;;22.23;10.13;;;;;;;-7.82;100.00;100700.64;1480857;95;21642;-68
2022/01/13 11:21:26;;;;;;;21.30;8.67;;;;;;;-7.66;100.00;100693.23;1515498;93;21106;-69
2022/01/13 11:23:54;;;;;;;30.00;13.27;;;;;;;-7.58;100.00;100691.72;1515312;92;21089;-69
2022/01/13 11:26:26;;;;;;;27.33;12.33;;;;;;;-7.57;100.00;100685.11;1517201;93;21105;-69
2022/01/13 11:28:52;;;;;;;24.77;10.23;;;;;;;-7.59;100.00;100687.39;1520705;93;21120;-68
2022/01/13 11:31:20;;;;;;;30.20;11.20;;;;;;;-7.62;100.00;100686.99;1514147;93;21686;-68
2022/01/13 11:33:47;;;;;;;24.20;10.73;;;;;;;-7.67;100.00;100695.44;1516264;95;21133;-70
2022/01/13 11:36:14;;;;;;;31.43;11.70;;;;;;;-7.79;100.00;100703.62;1531541;93;21629;-69
2022/01/13 11:38:57;;;;;;;27.43;11.30;;;;;;;-7.89;100.00;100695.98;1536226;92;21156;-68
2022/01/13 11:41:25;;;;;;;25.93;10.33;;;;;;;-7.86;100.00;100689.36;1531739;92;21144;-69
2022/01/13 11:43:52;;;;;;;40.33;16.93;;;;;;;-7.73;100.00;100694.30;1550393;91;21097;-69
2022/01/13 11:46:25;;;;;;;28.93;12.23;;;;;;;-7.62;100.00;100690.08;1509215;94;21199;-68
2022/01/13 11:49:06;;;;;;;33.57;16.40;;;;;;;-7.46;100.00;100685.68;1537748;92;21071;-69
2022/01/13 11:54:35;;;;;;;29.93;14.40;;;;;;;-7.38;100.00;100691.17;1529793;93;21633;-68
2022/01/13 11:57:22;;;;;;;25.20;13.23;;;;;;;-7.38;100.00;100683.30;1567955;84;21026;-69